KTHV/THV METAR and TAF weather

Enter ICAO airport designator
Station Type Date Time Source
KTHV METAR 2020/01/21 08:53 UTC NOAA

KTHV 210853Z AUTO 33005KT 10SM CLR M07/M15 A3044 RMK AO2 SLP316 T10721150 50005


Station Type Date Time Source
KTHV Decoded METAR 2020/01/21 08:53 UTC NOAA

YORK AIRPORT, PA, United States (KTHV) 39-55N 076-53W 144M
Jan 21, 2020 - 03:53 AM EST / 2020.01.21 0853 UTC
Wind: from the NNW (330 degrees) at 6 MPH (5 KT):0
Visibility: 10 mile(s):0
Sky conditions: clear
Temperature: 19.0 F (-7.2 C)
Windchill: 10 F (-12 C):1
Dew Point: 5.0 F (-15.0 C)
Relative Humidity: 53%
Pressure (altimeter): 30.44 in. Hg (1030 hPa)
Pressure tendency: 0.01 inches (0.5 hPa) higher than three hours ago
ob: KTHV 210853Z AUTO 33005KT 10SM CLR M07/M15 A3044 RMK AO2 SLP316 T10721150 50005
cycle: 9

Station Type Date Time Source
KTHV TAF UTC NOAA

Error!

Example: see airport list